sensor_id;sensor_type;location;lat;lon;timestamp;pressure;altitude;pressure_sealevel;temperature;humidity
25610;BME280;13479;49.044;8.716;2023-05-19T04:01:13;99435.06;;;10.07;60.93
25610;BME280;13479;49.044;8.716;2023-05-19T04:03:38;99458.81;;;10.09;60.97
25610;BME280;13479;49.044;8.716;2023-05-19T04:06:04;99451.09;;;10.05;61.18
25610;BME280;13479;49.044;8.716;2023-05-19T04:08:29;99460.50;;;10.10;60.85
25610;BME280;13479;49.044;8.716;2023-05-19T04:10:54;99478.50;;;10.17;60.66
25610;BME280;13479;49.044;8.716;2023-05-19T04:13:20;99480.41;;;10.15;60.51
25610;BME280;13479;49.044;8.716;2023-05-19T04:18:13;99509.63;;;10.27;60.01
25610;BME280;13479;49.044;8.716;2023-05-19T04:20:38;99519.50;;;10.25;59.84
25610;BME280;13479;49.044;8.716;2023-05-19T04:23:04;99534.25;;;10.29;59.91
25610;BME280;13479;49.044;8.716;2023-05-19T04:25:29;99551.59;;;10.33;59.73
25610;BME280;13479;49.044;8.716;2023-05-19T04:27:54;99560.09;;;10.38;59.36
25610;BME280;13479;49.044;8.716;2023-05-19T04:30:22;99553.69;;;10.41;59.47
25610;BME280;13479;49.044;8.716;2023-05-19T04:32:48;99568.91;;;10.50;58.81
25610;BME280;13479;49.044;8.716;2023-05-19T04:35:14;99572.44;;;10.50;59.03
25610;BME280;13479;49.044;8.716;2023-05-19T04:37:44;99587.41;;;10.63;58.45
25610;BME280;13479;49.044;8.716;2023-05-19T04:40:11;99590.41;;;10.70;58.21
25610;BME280;13479;49.044;8.716;2023-05-19T04:42:36;99598.75;;;10.76;57.89
25610;BME280;13479;49.044;8.716;2023-05-19T04:45:05;99593.94;;;10.81;57.72
25610;BME280;13479;49.044;8.716;2023-05-19T04:47:32;99596.47;;;10.83;57.82
25610;BME280;13479;49.044;8.716;2023-05-19T04:50:01;99602.38;;;10.87;57.45
25610;BME280;13479;49.044;8.716;2023-05-19T04:52:26;99593.44;;;10.88;57.63
25610;BME280;13479;49.044;8.716;2023-05-19T04:54:52;99595.28;;;10.99;57.29
25610;BME280;13479;49.044;8.716;2023-05-19T04:57:18;99595.03;;;11.02;57.32
25610;BME280;13479;49.044;8.716;2023-05-19T04:59:43;99600.22;;;11.15;56.92
25610;BME280;13479;49.044;8.716;2023-05-19T05:02:08;99609.00;;;11.26;56.61
25610;BME280;13479;49.044;8.716;2023-05-19T05:04:34;99602.97;;;11.36;56.17
25610;BME280;13479;49.044;8.716;2023-05-19T05:07:00;99595.00;;;11.47;56.08
25610;BME280;13479;49.044;8.716;2023-05-19T05:09:25;99591.44;;;11.58;55.89
25610;BME280;13479;49.044;8.716;2023-05-19T05:11:50;99601.09;;;11.70;55.37
25610;BME280;13479;49.044;8.716;2023-05-19T05:14:16;99607.53;;;11.89;55.29
25610;BME280;13479;49.044;8.716;2023-05-19T05:16:41;99610.56;;;12.28;53.60
25610;BME280;13479;49.044;8.716;2023-05-19T05:19:07;99609.56;;;12.93;52.10
25610;BME280;13479;49.044;8.716;2023-05-19T05:21:33;99598.25;;;13.51;50.46
25610;BME280;13479;49.044;8.716;2023-05-19T05:23:58;99598.19;;;14.21;49.44
25610;BME280;13479;49.044;8.716;2023-05-19T05:26:29;99597.72;;;15.03;47.16
25610;BME280;13479;49.044;8.716;2023-05-19T05:28:54;99604.81;;;15.22;46.14
25610;BME280;13479;49.044;8.716;2023-05-19T05:31:20;99611.69;;;14.97;45.79
25610;BME280;13479;49.044;8.716;2023-05-19T05:33:45;99599.53;;;14.55;46.64
25610;BME280;13479;49.044;8.716;2023-05-19T05:36:10;99579.19;;;14.34;47.63
25610;BME280;13479;49.044;8.716;2023-05-19T05:38:36;99570.56;;;14.50;47.93
25610;BME280;13479;49.044;8.716;2023-05-19T05:41:01;99598.03;;;15.00;46.61
25610;BME280;13479;49.044;8.716;2023-05-19T05:43:28;99605.34;;;15.26;45.78
25610;BME280;13479;49.044;8.716;2023-05-19T05:45:53;99607.75;;;15.57;44.84
25610;BME280;13479;49.044;8.716;2023-05-19T05:48:19;99596.38;;;15.73;44.72
25610;BME280;13479;49.044;8.716;2023-05-19T05:50:45;99607.13;;;15.91;43.77
25610;BME280;13479;49.044;8.716;2023-05-19T05:53:16;99596.13;;;15.66;44.36
25610;BME280;13479;49.044;8.716;2023-05-19T05:55:43;99594.91;;;15.79;44.87
25610;BME280;13479;49.044;8.716;2023-05-19T05:58:08;99599.44;;;16.14;44.12
25610;BME280;13479;49.044;8.716;2023-05-19T06:00:35;99600.88;;;16.71;43.31
25610;BME280;13479;49.044;8.716;2023-05-19T06:03:01;99599.72;;;17.43;42.40
25610;BME280;13479;49.044;8.716;2023-05-19T06:05:27;99595.69;;;18.15;40.74
25610;BME280;13479;49.044;8.716;2023-05-19T06:07:52;99609.44;;;18.78;39.29
25610;BME280;13479;49.044;8.716;2023-05-19T06:10:18;99611.38;;;19.09;38.33
25610;BME280;13479;49.044;8.716;2023-05-19T06:12:43;99614.56;;;19.84;37.20
25610;BME280;13479;49.044;8.716;2023-05-19T06:15:09;99612.75;;;20.46;36.06
25610;BME280;13479;49.044;8.716;2023-05-19T06:17:34;99613.53;;;21.08;34.90
25610;BME280;13479;49.044;8.716;2023-05-19T06:20:00;99629.22;;;22.01;33.52
25610;BME280;13479;49.044;8.716;2023-05-19T06:22:26;99626.22;;;22.61;32.14
25610;BME280;13479;49.044;8.716;2023-05-19T06:24:52;99642.94;;;22.71;31.77
25610;BME280;13479;49.044;8.716;2023-05-19T06:27:17;99636.41;;;21.94;32.81
25610;BME280;13479;49.044;8.716;2023-05-19T06:29:42;99635.81;;;21.77;33.00
25610;BME280;13479;49.044;8.716;2023-05-19T06:32:08;99638.81;;;22.25;33.15
25610;BME280;13479;49.044;8.716;2023-05-19T06:34:33;99643.38;;;22.68;32.29
25610;BME280;13479;49.044;8.716;2023-05-19T06:36:58;99636.06;;;22.97;31.16
25610;BME280;13479;49.044;8.716;2023-05-19T06:39:23;99646.16;;;22.81;31.19
25610;BME280;13479;49.044;8.716;2023-05-19T06:41:49;99643.75;;;22.65;31.79
25610;BME280;13479;49.044;8.716;2023-05-19T06:44:14;99645.22;;;22.96;31.61
25610;BME280;13479;49.044;8.716;2023-05-19T06:46:40;99644.50;;;23.51;31.29
25610;BME280;13479;49.044;8.716;2023-05-19T06:49:05;99638.88;;;24.21;29.81
25610;BME280;13479;49.044;8.716;2023-05-19T06:51:30;99635.78;;;24.85;29.17
25610;BME280;13479;49.044;8.716;2023-05-19T06:53:56;99641.56;;;25.15;28.66
25610;BME280;13479;49.044;8.716;2023-05-19T06:56:21;99643.19;;;25.43;28.42
25610;BME280;13479;49.044;8.716;2023-05-19T06:58:47;99648.56;;;25.56;27.96
25610;BME280;13479;49.044;8.716;2023-05-19T07:01:12;99650.13;;;26.23;27.69
25610;BME280;13479;49.044;8.716;2023-05-19T07:03:37;99644.16;;;26.33;27.29
25610;BME280;13479;49.044;8.716;2023-05-19T07:06:02;99650.59;;;26.13;26.98
25610;BME280;13479;49.044;8.716;2023-05-19T07:08:28;99643.34;;;26.00;27.57
25610;BME280;13479;49.044;8.716;2023-05-19T07:10:53;99649.72;;;25.74;27.62
25610;BME280;13479;49.044;8.716;2023-05-19T07:13:20;99649.34;;;24.64;28.22
25610;BME280;13479;49.044;8.716;2023-05-19T07:15:45;99639.16;;;23.71;29.73
25610;BME280;13479;49.044;8.716;2023-05-19T07:18:12;99636.06;;;23.74;29.92
25610;BME280;13479;49.044;8.716;2023-05-19T07:20:38;99627.44;;;23.57;29.99
25610;BME280;13479;49.044;8.716;2023-05-19T07:23:03;99608.06;;;23.67;30.24
25610;BME280;13479;49.044;8.716;2023-05-19T07:25:29;99609.06;;;24.48;29.64
25610;BME280;13479;49.044;8.716;2023-05-19T07:27:55;99605.78;;;25.77;28.09
25610;BME280;13479;49.044;8.716;2023-05-19T07:30:20;99615.47;;;26.12;27.04
25610;BME280;13479;49.044;8.716;2023-05-19T07:32:46;99619.63;;;26.40;26.77
25610;BME280;13479;49.044;8.716;2023-05-19T07:35:11;99621.06;;;26.67;26.23
25610;BME280;13479;49.044;8.716;2023-05-19T07:37:36;99612.28;;;26.65;26.23
25610;BME280;13479;49.044;8.716;2023-05-19T07:40:02;99621.59;;;26.76;26.02
25610;BME280;13479;49.044;8.716;2023-05-19T07:42:28;99614.19;;;27.77;25.62
25610;BME280;13479;49.044;8.716;2023-05-19T07:44:53;99604.94;;;28.74;24.07
25610;BME280;13479;49.044;8.716;2023-05-19T07:47:19;99611.09;;;28.93;23.41
25610;BME280;13479;49.044;8.716;2023-05-19T07:49:44;99614.63;;;30.50;22.68
25610;BME280;13479;49.044;8.716;2023-05-19T07:52:09;99611.19;;;31.11;21.83
25610;BME280;13479;49.044;8.716;2023-05-19T07:54:35;99611.91;;;31.24;21.69
25610;BME280;13479;49.044;8.716;2023-05-19T07:57:00;99613.16;;;31.38;21.16
25610;BME280;13479;49.044;8.716;2023-05-19T07:59:25;99613.63;;;30.74;21.53
25610;BME280;13479;49.044;8.716;2023-05-19T08:01:51;99613.63;;;30.74;21.61
25610;BME280;13479;49.044;8.716;2023-05-19T08:04:16;99617.47;;;30.22;21.72
25610;BME280;13479;49.044;8.716;2023-05-19T08:06:41;99620.56;;;29.96;21.91
25610;BME280;13479;49.044;8.716;2023-05-19T08:09:08;99621.44;;;29.56;22.57
25610;BME280;13479;49.044;8.716;2023-05-19T08:11:33;99613.78;;;29.17;22.99
25610;BME280;13479;49.044;8.716;2023-05-19T08:13:58;99606.91;;;28.55;23.71
25610;BME280;13479;49.044;8.716;2023-05-19T08:16:24;99607.84;;;27.64;24.36
25610;BME280;13479;49.044;8.716;2023-05-19T08:18:49;99591.63;;;26.76;25.78
25610;BME280;13479;49.044;8.716;2023-05-19T08:21:14;99587.53;;;26.23;26.81
25610;BME280;13479;49.044;8.716;2023-05-19T08:23:40;99578.47;;;25.97;26.77
25610;BME280;13479;49.044;8.716;2023-05-19T08:26:05;99569.03;;;26.32;26.75
25610;BME280;13479;49.044;8.716;2023-05-19T08:28:30;99565.22;;;26.58;26.29
25610;BME280;13479;49.044;8.716;2023-05-19T08:30:56;99552.00;;;26.62;26.36
25610;BME280;13479;49.044;8.716;2023-05-19T08:33:21;99542.81;;;27.00;26.41
25610;BME280;13479;49.044;8.716;2023-05-19T08:35:46;99544.91;;;27.66;25.46
25610;BME280;13479;49.044;8.716;2023-05-19T08:38:12;99549.50;;;27.96;25.27
25610;BME280;13479;49.044;8.716;2023-05-19T08:40:42;99557.56;;;27.90;25.36
25610;BME280;13479;49.044;8.716;2023-05-19T08:43:10;99555.31;;;27.57;25.34
25610;BME280;13479;49.044;8.716;2023-05-19T08:45:35;99554.00;;;27.10;25.97
25610;BME280;13479;49.044;8.716;2023-05-19T08:48:03;99546.44;;;27.12;25.80
25610;BME280;13479;49.044;8.716;2023-05-19T08:50:30;99544.81;;;26.67;26.28
25610;BME280;13479;49.044;8.716;2023-05-19T08:53:06;99543.53;;;26.70;26.43
25610;BME280;13479;49.044;8.716;2023-05-19T08:55:43;99536.75;;;26.98;26.17
25610;BME280;13479;49.044;8.716;2023-05-19T08:58:11;99532.47;;;26.90;26.67
25610;BME280;13479;49.044;8.716;2023-05-19T09:00:37;99543.84;;;26.62;25.87
25610;BME280;13479;49.044;8.716;2023-05-19T09:03:03;99543.81;;;25.86;26.86
25610;BME280;13479;49.044;8.716;2023-05-19T09:05:28;99536.13;;;25.44;27.42
25610;BME280;13479;49.044;8.716;2023-05-19T09:07:54;99529.63;;;25.00;27.95
25610;BME280;13479;49.044;8.716;2023-05-19T09:10:20;99525.97;;;24.54;28.40
25610;BME280;13479;49.044;8.716;2023-05-19T09:12:45;99521.00;;;24.03;29.25
25610;BME280;13479;49.044;8.716;2023-05-19T09:15:12;99511.31;;;23.54;30.24
25610;BME280;13479;49.044;8.716;2023-05-19T09:17:40;99517.22;;;23.16;31.08
25610;BME280;13479;49.044;8.716;2023-05-19T09:20:06;99513.16;;;22.91;31.32
25610;BME280;13479;49.044;8.716;2023-05-19T09:22:40;99510.25;;;22.58;31.97
25610;BME280;13479;49.044;8.716;2023-05-19T09:25:17;99498.44;;;21.80;32.79
25610;BME280;13479;49.044;8.716;2023-05-19T09:27:42;99505.75;;;21.43;33.46
25610;BME280;13479;49.044;8.716;2023-05-19T09:30:07;99499.34;;;21.29;34.09
25610;BME280;13479;49.044;8.716;2023-05-19T09:32:34;99494.78;;;21.29;33.82
25610;BME280;13479;49.044;8.716;2023-05-19T09:35:01;99480.59;;;21.06;33.83
25610;BME280;13479;49.044;8.716;2023-05-19T09:37:27;99477.09;;;20.90;34.27
25610;BME280;13479;49.044;8.716;2023-05-19T09:39:53;99480.56;;;20.84;35.11
25610;BME280;13479;49.044;8.716;2023-05-19T09:42:25;99473.28;;;21.00;34.37
25610;BME280;13479;49.044;8.716;2023-05-19T09:45:04;99469.44;;;21.09;34.13
25610;BME280;13479;49.044;8.716;2023-05-19T09:47:39;99461.53;;;21.29;34.32
25610;BME280;13479;49.044;8.716;2023-05-19T09:50:07;99452.00;;;21.70;34.07
25610;BME280;13479;49.044;8.716;2023-05-19T09:52:42;99468.66;;;22.02;33.55
25610;BME280;13479;49.044;8.716;2023-05-19T09:55:09;99462.44;;;22.30;32.91
25610;BME280;13479;49.044;8.716;2023-05-19T09:57:36;99470.75;;;22.57;32.66
25610;BME280;13479;49.044;8.716;2023-05-19T10:00:03;99465.63;;;22.75;33.23
25610;BME280;13479;49.044;8.716;2023-05-19T10:02:34;99466.16;;;23.06;32.33
25610;BME280;13479;49.044;8.716;2023-05-19T10:05:01;99492.13;;;23.35;31.20
25610;BME280;13479;49.044;8.716;2023-05-19T10:07:26;99477.50;;;23.36;31.26
25610;BME280;13479;49.044;8.716;2023-05-19T10:09:52;99486.28;;;23.45;31.12
25610;BME280;13479;49.044;8.716;2023-05-19T10:12:19;99484.22;;;23.54;31.02
25610;BME280;13479;49.044;8.716;2023-05-19T10:14:45;99491.09;;;23.56;31.36
25610;BME280;13479;49.044;8.716;2023-05-19T10:17:12;99495.88;;;23.41;31.22
25610;BME280;13479;49.044;8.716;2023-05-19T10:19:38;99479.59;;;23.48;31.75
25610;BME280;13479;49.044;8.716;2023-05-19T10:22:04;99498.38;;;23.42;31.25
25610;BME280;13479;49.044;8.716;2023-05-19T10:24:29;99501.59;;;23.18;31.40
25610;BME280;13479;49.044;8.716;2023-05-19T10:26:59;99486.56;;;23.08;31.80
25610;BME280;13479;49.044;8.716;2023-05-19T10:29:28;99507.28;;;22.81;31.60
25610;BME280;13479;49.044;8.716;2023-05-19T10:31:58;99483.69;;;22.68;32.32
25610;BME280;13479;49.044;8.716;2023-05-19T10:37:45;99468.66;;;22.02;33.65
25610;BME280;13479;49.044;8.716;2023-05-19T10:40:25;99462.66;;;22.00;33.69
25610;BME280;13479;49.044;8.716;2023-05-19T10:43:01;99450.66;;;22.09;33.72
25610;BME280;13479;49.044;8.716;2023-05-19T10:45:35;99439.66;;;22.17;33.62
25610;BME280;13479;49.044;8.716;2023-05-19T10:48:10;99441.09;;;22.13;33.82
25610;BME280;13479;49.044;8.716;2023-05-19T10:50:35;99442.28;;;22.39;33.76
25610;BME280;13479;49.044;8.716;2023-05-19T10:53:01;99455.50;;;22.49;33.09
25610;BME280;13479;49.044;8.716;2023-05-19T10:55:53;99459.06;;;22.28;33.33
25610;BME280;13479;49.044;8.716;2023-05-19T11:01:08;99443.50;;;21.51;34.43
25610;BME280;13479;49.044;8.716;2023-05-19T11:03:47;99433.56;;;21.37;35.11
25610;BME280;13479;49.044;8.716;2023-05-19T11:06:26;99441.66;;;21.58;35.03
25610;BME280;13479;49.044;8.716;2023-05-19T11:08:53;99447.88;;;21.74;34.89
25610;BME280;13479;49.044;8.716;2023-05-19T11:11:19;99449.66;;;21.88;34.19
25610;BME280;13479;49.044;8.716;2023-05-19T11:13:54;99434.41;;;22.09;34.18
25610;BME280;13479;49.044;8.716;2023-05-19T11:16:27;99444.53;;;22.29;33.83
25610;BME280;13479;49.044;8.716;2023-05-19T11:18:55;99426.97;;;22.46;34.43
25610;BME280;13479;49.044;8.716;2023-05-19T11:21:20;99434.78;;;22.70;33.59
25610;BME280;13479;49.044;8.716;2023-05-19T11:23:46;99448.13;;;22.78;32.86
25610;BME280;13479;49.044;8.716;2023-05-19T11:26:12;99450.56;;;22.59;33.54
25610;BME280;13479;49.044;8.716;2023-05-19T11:28:37;99467.50;;;22.11;33.33
25610;BME280;13479;49.044;8.716;2023-05-19T11:31:03;99456.13;;;21.66;34.33
25610;BME280;13479;49.044;8.716;2023-05-19T11:33:32;99442.84;;;21.49;34.66
25610;BME280;13479;49.044;8.716;2023-05-19T11:35:58;99417.13;;;21.32;34.95
25610;BME280;13479;49.044;8.716;2023-05-19T11:38:24;99434.53;;;21.29;34.58
25610;BME280;13479;49.044;8.716;2023-05-19T11:40:53;99419.41;;;20.91;34.82
25610;BME280;13479;49.044;8.716;2023-05-19T11:43:18;99414.78;;;20.55;35.41
25610;BME280;13479;49.044;8.716;2023-05-19T11:45:44;99409.16;;;20.20;36.13
25610;BME280;13479;49.044;8.716;2023-05-19T11:48:10;99413.66;;;19.89;37.05
25610;BME280;13479;49.044;8.716;2023-05-19T11:50:35;99422.03;;;19.71;37.86
25610;BME280;13479;49.044;8.716;2023-05-19T11:53:02;99404.72;;;19.51;37.68
25610;BME280;13479;49.044;8.716;2023-05-19T11:55:28;99414.31;;;19.30;38.53
25610;BME280;13479;49.044;8.716;2023-05-19T11:58:02;99408.69;;;19.17;38.41
25610;BME280;13479;49.044;8.716;2023-05-19T12:00:29;99403.41;;;19.00;39.65
25610;BME280;13479;49.044;8.716;2023-05-19T12:02:56;99411.50;;;18.92;39.23
25610;BME280;13479;49.044;8.716;2023-05-19T12:05:23;99408.25;;;18.73;39.68
25610;BME280;13479;49.044;8.716;2023-05-19T12:07:50;99410.47;;;18.61;39.91
25610;BME280;13479;49.044;8.716;2023-05-19T12:10:23;99405.66;;;18.48;40.24
25610;BME280;13479;49.044;8.716;2023-05-19T12:12:52;99407.34;;;18.49;39.97
25610;BME280;13479;49.044;8.716;2023-05-19T12:15:21;99399.28;;;18.49;39.88
25610;BME280;13479;49.044;8.716;2023-05-19T12:17:57;99391.84;;;18.60;40.10
25610;BME280;13479;49.044;8.716;2023-05-19T12:20:24;99395.13;;;18.70;39.81
25610;BME280;13479;49.044;8.716;2023-05-19T12:22:50;99386.19;;;18.78;40.29
25610;BME280;13479;49.044;8.716;2023-05-19T12:25:16;99391.63;;;19.01;39.75
25610;BME280;13479;49.044;8.716;2023-05-19T12:27:42;99402.22;;;19.26;39.23
25610;BME280;13479;49.044;8.716;2023-05-19T12:30:09;99399.47;;;19.34;39.01
25610;BME280;13479;49.044;8.716;2023-05-19T12:32:35;99405.56;;;19.51;38.66
25610;BME280;13479;49.044;8.716;2023-05-19T12:35:02;99396.78;;;19.72;39.33
25610;BME280;13479;49.044;8.716;2023-05-19T12:37:29;99405.50;;;19.98;38.76
25610;BME280;13479;49.044;8.716;2023-05-19T12:39:55;99408.00;;;19.99;38.80
25610;BME280;13479;49.044;8.716;2023-05-19T12:42:22;99425.13;;;20.06;37.92
25610;BME280;13479;49.044;8.716;2023-05-19T12:44:49;99429.69;;;19.83;38.05
25610;BME280;13479;49.044;8.716;2023-05-19T12:47:16;99430.84;;;19.65;38.57
25610;BME280;13479;49.044;8.716;2023-05-19T12:49:55;99429.50;;;19.46;38.76
25610;BME280;13479;49.044;8.716;2023-05-19T12:52:25;99418.91;;;19.44;39.08
25610;BME280;13479;49.044;8.716;2023-05-19T12:55:02;99422.31;;;19.38;38.97
25610;BME280;13479;49.044;8.716;2023-05-19T12:57:33;99398.38;;;19.43;39.15
25610;BME280;13479;49.044;8.716;2023-05-19T13:00:16;99413.34;;;19.46;39.08
25610;BME280;13479;49.044;8.716;2023-05-19T13:03:03;99408.81;;;19.62;38.92
25610;BME280;13479;49.044;8.716;2023-05-19T13:05:35;99411.06;;;19.58;38.92
25610;BME280;13479;49.044;8.716;2023-05-19T13:10:30;99410.97;;;19.28;39.27
25610;BME280;13479;49.044;8.716;2023-05-19T13:12:57;99403.53;;;19.30;39.21
25610;BME280;13479;49.044;8.716;2023-05-19T13:15:25;99412.50;;;19.22;39.11
25610;BME280;13479;49.044;8.716;2023-05-19T13:17:51;99403.34;;;19.08;39.22
25610;BME280;13479;49.044;8.716;2023-05-19T13:20:18;99392.28;;;19.03;39.36
25610;BME280;13479;49.044;8.716;2023-05-19T13:22:43;99382.59;;;18.94;39.78
25610;BME280;13479;49.044;8.716;2023-05-19T13:25:09;99379.28;;;18.83;39.85
25610;BME280;13479;49.044;8.716;2023-05-19T13:27:35;99380.97;;;18.76;40.23
25610;BME280;13479;49.044;8.716;2023-05-19T13:30:01;99390.44;;;18.72;40.70
25610;BME280;13479;49.044;8.716;2023-05-19T13:32:26;99384.38;;;18.70;40.49
25610;BME280;13479;49.044;8.716;2023-05-19T13:34:51;99378.69;;;18.65;40.61
25610;BME280;13479;49.044;8.716;2023-05-19T13:37:16;99378.66;;;18.73;40.60
25610;BME280;13479;49.044;8.716;2023-05-19T13:39:42;99376.59;;;18.75;40.70
25610;BME280;13479;49.044;8.716;2023-05-19T13:42:07;99383.50;;;18.78;40.90
25610;BME280;13479;49.044;8.716;2023-05-19T13:44:32;99380.28;;;18.82;40.44
25610;BME280;13479;49.044;8.716;2023-05-19T13:46:58;99380.63;;;18.79;40.68
25610;BME280;13479;49.044;8.716;2023-05-19T13:49:23;99366.16;;;18.80;41.30
25610;BME280;13479;49.044;8.716;2023-05-19T13:51:48;99374.00;;;18.98;40.88
25610;BME280;13479;49.044;8.716;2023-05-19T13:54:14;99376.38;;;19.17;40.84
25610;BME280;13479;49.044;8.716;2023-05-19T13:56:39;99380.34;;;19.29;40.42
25610;BME280;13479;49.044;8.716;2023-05-19T13:59:05;99374.56;;;19.32;40.84
25610;BME280;13479;49.044;8.716;2023-05-19T14:01:30;99387.75;;;19.27;39.82
25610;BME280;13479;49.044;8.716;2023-05-19T14:03:55;99393.84;;;19.21;40.06
25610;BME280;13479;49.044;8.716;2023-05-19T14:06:20;99401.28;;;19.19;39.97
25610;BME280;13479;49.044;8.716;2023-05-19T14:08:46;99402.97;;;19.11;39.69
25610;BME280;13479;49.044;8.716;2023-05-19T14:11:18;99394.91;;;19.11;39.82
25610;BME280;13479;49.044;8.716;2023-05-19T14:13:44;99391.94;;;19.06;40.28
25610;BME280;13479;49.044;8.716;2023-05-19T14:16:10;99382.84;;;19.07;40.52
25610;BME280;13479;49.044;8.716;2023-05-19T14:18:35;99368.19;;;19.10;40.61
25610;BME280;13479;49.044;8.716;2023-05-19T14:21:00;99372.50;;;19.19;40.04
25610;BME280;13479;49.044;8.716;2023-05-19T14:23:26;99372.56;;;19.11;40.47
25610;BME280;13479;49.044;8.716;2023-05-19T14:25:53;99374.72;;;19.16;40.26
25610;BME280;13479;49.044;8.716;2023-05-19T14:28:18;99365.66;;;19.08;40.39
25610;BME280;13479;49.044;8.716;2023-05-19T14:30:43;99363.47;;;19.12;40.34
25610;BME280;13479;49.044;8.716;2023-05-19T14:33:08;99361.91;;;19.18;40.67
25610;BME280;13479;49.044;8.716;2023-05-19T14:35:34;99357.81;;;19.22;40.49
25610;BME280;13479;49.044;8.716;2023-05-19T14:37:59;99365.47;;;19.33;40.36
25610;BME280;13479;49.044;8.716;2023-05-19T14:40:24;99373.94;;;19.30;39.85
25610;BME280;13479;49.044;8.716;2023-05-19T14:42:50;99383.81;;;19.14;39.87
25610;BME280;13479;49.044;8.716;2023-05-19T14:45:15;99386.09;;;19.03;39.76
25610;BME280;13479;49.044;8.716;2023-05-19T14:47:40;99373.44;;;19.03;40.31
25610;BME280;13479;49.044;8.716;2023-05-19T14:50:06;99363.34;;;19.05;40.28
25610;BME280;13479;49.044;8.716;2023-05-19T14:52:31;99362.38;;;18.98;40.37
25610;BME280;13479;49.044;8.716;2023-05-19T14:54:56;99351.25;;;19.01;40.66
25610;BME280;13479;49.044;8.716;2023-05-19T14:57:21;99347.91;;;18.99;40.79
25610;BME280;13479;49.044;8.716;2023-05-19T14:59:48;99354.75;;;19.10;41.03
25610;BME280;13479;49.044;8.716;2023-05-19T15:02:13;99367.66;;;19.14;40.22
25610;BME280;13479;49.044;8.716;2023-05-19T15:04:38;99365.63;;;19.17;40.15
25610;BME280;13479;49.044;8.716;2023-05-19T15:07:04;99371.72;;;19.10;40.53
25610;BME280;13479;49.044;8.716;2023-05-19T15:09:29;99366.44;;;19.17;40.42
25610;BME280;13479;49.044;8.716;2023-05-19T15:11:54;99368.66;;;19.13;40.41
25610;BME280;13479;49.044;8.716;2023-05-19T15:14:20;99355.53;;;19.19;40.60
25610;BME280;13479;49.044;8.716;2023-05-19T15:16:45;99354.25;;;19.06;40.74
25610;BME280;13479;49.044;8.716;2023-05-19T15:19:10;99334.03;;;19.10;41.38
25610;BME280;13479;49.044;8.716;2023-05-19T15:21:36;99333.81;;;19.20;41.17
25610;BME280;13479;49.044;8.716;2023-05-19T15:24:01;99351.84;;;19.11;40.94
25610;BME280;13479;49.044;8.716;2023-05-19T15:26:26;99353.59;;;19.04;40.92
25610;BME280;13479;49.044;8.716;2023-05-19T15:28:52;99347.94;;;18.91;41.08
25610;BME280;13479;49.044;8.716;2023-05-19T15:31:17;99345.31;;;18.82;41.11
25610;BME280;13479;49.044;8.716;2023-05-19T15:33:42;99339.50;;;18.71;41.72
25610;BME280;13479;49.044;8.716;2023-05-19T15:36:07;99332.44;;;18.70;41.71
25610;BME280;13479;49.044;8.716;2023-05-19T15:38:36;99324.78;;;18.58;41.93
25610;BME280;13479;49.044;8.716;2023-05-19T15:41:05;99315.56;;;18.52;42.70
25610;BME280;13479;49.044;8.716;2023-05-19T15:43:30;99325.00;;;18.48;42.49
25610;BME280;13479;49.044;8.716;2023-05-19T15:45:56;99319.63;;;18.48;42.48
25610;BME280;13479;49.044;8.716;2023-05-19T15:48:21;99318.66;;;18.41;42.64
25610;BME280;13479;49.044;8.716;2023-05-19T15:50:46;99315.31;;;18.39;42.87
25610;BME280;13479;49.044;8.716;2023-05-19T15:53:11;99314.59;;;18.45;42.95
25610;BME280;13479;49.044;8.716;2023-05-19T15:55:37;99318.91;;;18.55;42.36
25610;BME280;13479;49.044;8.716;2023-05-19T15:58:02;99310.19;;;18.52;42.73
25610;BME280;13479;49.044;8.716;2023-05-19T16:00:27;99311.16;;;18.60;42.70
25610;BME280;13479;49.044;8.716;2023-05-19T16:02:52;99305.06;;;18.66;42.51
25610;BME280;13479;49.044;8.716;2023-05-19T16:05:18;99305.44;;;18.63;42.91
25610;BME280;13479;49.044;8.716;2023-05-19T16:07:43;99304.19;;;18.74;42.20
25610;BME280;13479;49.044;8.716;2023-05-19T16:10:09;99308.19;;;18.78;41.93
25610;BME280;13479;49.044;8.716;2023-05-19T16:12:34;99325.16;;;18.78;42.00
25610;BME280;13479;49.044;8.716;2023-05-19T16:15:00;99319.78;;;18.78;42.12
25610;BME280;13479;49.044;8.716;2023-05-19T16:17:26;99309.03;;;18.78;42.46
25610;BME280;13479;49.044;8.716;2023-05-19T16:19:51;99300.88;;;18.87;42.06
25610;BME280;13479;49.044;8.716;2023-05-19T16:22:16;99298.03;;;18.88;42.60
25610;BME280;13479;49.044;8.716;2023-05-19T16:24:42;99287.91;;;18.98;42.29
25610;BME280;13479;49.044;8.716;2023-05-19T16:27:07;99285.88;;;19.01;42.17
25610;BME280;13479;49.044;8.716;2023-05-19T16:29:32;99283.28;;;19.07;41.91
25610;BME280;13479;49.044;8.716;2023-05-19T16:31:58;99292.94;;;19.02;42.39
25610;BME280;13479;49.044;8.716;2023-05-19T16:34:23;99279.75;;;19.07;42.04
25610;BME280;13479;49.044;8.716;2023-05-19T16:36:48;99276.78;;;19.02;42.46
25610;BME280;13479;49.044;8.716;2023-05-19T16:39:14;99267.31;;;18.82;43.41
25610;BME280;13479;49.044;8.716;2023-05-19T16:41:39;99270.78;;;18.91;42.71
25610;BME280;13479;49.044;8.716;2023-05-19T16:44:04;99266.59;;;18.89;42.84
25610;BME280;13479;49.044;8.716;2023-05-19T16:46:30;99261.75;;;18.84;43.11
25610;BME280;13479;49.044;8.716;2023-05-19T16:48:55;99257.50;;;18.90;42.58
25610;BME280;13479;49.044;8.716;2023-05-19T16:51:20;99266.97;;;18.86;42.42
25610;BME280;13479;49.044;8.716;2023-05-19T16:53:45;99263.66;;;18.75;42.90
25610;BME280;13479;49.044;8.716;2023-05-19T16:56:11;99255.00;;;18.65;43.46
25610;BME280;13479;49.044;8.716;2023-05-19T16:58:36;99258.00;;;18.70;43.53
25610;BME280;13479;49.044;8.716;2023-05-19T17:01:01;99258.88;;;18.62;43.73
25610;BME280;13479;49.044;8.716;2023-05-19T17:03:27;99252.69;;;18.62;44.24
25610;BME280;13479;49.044;8.716;2023-05-19T17:05:54;99249.25;;;18.68;44.02
25610;BME280;13479;49.044;8.716;2023-05-19T17:08:19;99247.22;;;18.70;43.76